Terminal Aerodrome Forecast
Issued by NWS Pocatello, ID

Home | Current Version | Previous Version | Text Only | Print | Product List | Glossary On
Versions: 1 2 3 4 5 6 7 8 9 10 11 12 13 14 15 16 17 18 19 20 21 22 23 24 25 26 27 28 29 30 31 32 33 34
000
FTUS45 KPIH 222332
TAFBYI
TAF
KBYI 222332Z 2300/2324 26007KT P6SM SCT060
     FM230300 22006KT P6SM FEW060
     FM231800 27011KT P6SM FEW060 FEW140=

USA.gov is the U.S. government's official web portal to all federal, state and local government web resources and services.